createdAt,value
2018-07-10T00:02:06.998Z,17.40
2018-07-10T00:04:34.561Z,17.60
2018-07-10T00:07:03.839Z,17.70
2018-07-10T00:09:31.371Z,17.70
2018-07-10T00:11:58.939Z,17.60
2018-07-10T00:14:26.477Z,17.50
2018-07-10T00:16:54.033Z,17.50
2018-07-10T00:19:21.594Z,17.50
2018-07-10T00:21:49.147Z,17.30
2018-07-10T00:24:16.708Z,17.30
2018-07-10T00:26:46.202Z,17.20
2018-07-10T00:29:14.702Z,17.30
2018-07-10T00:31:42.266Z,17.10
2018-07-10T00:34:09.820Z,17.10
2018-07-10T00:36:37.349Z,17.00
2018-07-10T00:39:04.936Z,17.00
2018-07-10T00:41:32.472Z,17.00
2018-07-10T00:44:00.035Z,17.00
2018-07-10T00:46:27.582Z,17.00
2018-07-10T00:48:57.123Z,17.10
2018-07-10T00:51:24.682Z,17.20
2018-07-10T00:53:52.242Z,17.10
2018-07-10T00:56:19.781Z,17.10
2018-07-10T00:58:47.333Z,17.00
2018-07-10T01:01:14.897Z,17.00
2018-07-10T01:03:42.457Z,17.10
2018-07-10T01:06:09.985Z,17.30
2018-07-10T01:08:37.555Z,17.30
2018-07-10T01:11:06.045Z,17.40
2018-07-10T01:13:33.606Z,17.40
2018-07-10T01:16:01.142Z,17.40
2018-07-10T01:18:29.706Z,17.30
2018-07-10T01:20:57.244Z,17.30
2018-07-10T01:23:24.821Z,17.20
2018-07-10T01:25:52.390Z,17.30
2018-07-10T01:28:19.930Z,17.40
2018-07-10T01:30:47.487Z,17.40
2018-07-10T01:33:15.050Z,17.30
2018-07-10T01:35:42.586Z,17.10
2018-07-10T01:38:10.150Z,17.20
2018-07-10T01:40:37.720Z,17.20
2018-07-10T01:43:05.291Z,17.20
2018-07-10T01:45:32.828Z,17.10
2018-07-10T01:48:00.467Z,17.20
2018-07-10T01:50:28.038Z,17.20
2018-07-10T01:52:55.573Z,17.30
2018-07-10T01:55:23.142Z,17.20
2018-07-10T01:57:50.686Z,17.20
2018-07-10T02:00:19.019Z,17.20
2018-07-10T02:02:46.550Z,17.20
2018-07-10T02:05:14.110Z,17.20
2018-07-10T02:07:41.653Z,17.10
2018-07-10T02:10:09.189Z,17.20
2018-07-10T02:12:39.453Z,17.30
2018-07-10T02:15:08.101Z,17.30
2018-07-10T02:17:35.643Z,17.20
2018-07-10T02:20:03.218Z,17.00
2018-07-10T02:22:30.781Z,16.80
2018-07-10T02:24:58.348Z,16.60
2018-07-10T02:27:25.882Z,16.50
2018-07-10T02:29:53.441Z,16.40
2018-07-10T02:32:21.741Z,16.40
2018-07-10T02:34:49.293Z,16.40
2018-07-10T02:37:16.859Z,16.40
2018-07-10T02:39:44.422Z,16.40
2018-07-10T02:42:11.954Z,16.40
2018-07-10T02:44:39.486Z,16.40
2018-07-10T02:47:07.050Z,16.40
2018-07-10T02:49:35.554Z,16.40
2018-07-10T02:52:03.124Z,16.40
2018-07-10T02:54:30.661Z,16.50
2018-07-10T02:56:58.223Z,16.50
2018-07-10T02:59:25.757Z,16.50
2018-07-10T03:01:53.323Z,16.50
2018-07-10T03:04:20.862Z,16.60
2018-07-10T03:06:48.422Z,16.70
2018-07-10T03:09:15.993Z,16.70
2018-07-10T03:11:43.539Z,16.60
2018-07-10T03:14:11.867Z,16.60
2018-07-10T03:16:39.431Z,16.60
2018-07-10T03:19:06.998Z,16.60
2018-07-10T03:21:34.536Z,16.50
2018-07-10T03:24:02.065Z,16.40
2018-07-10T03:26:29.631Z,16.30
2018-07-10T03:28:57.160Z,16.30
2018-07-10T03:31:24.721Z,16.20
2018-07-10T03:33:53.026Z,16.30
2018-07-10T03:36:20.594Z,16.30
2018-07-10T03:38:48.169Z,16.40
2018-07-10T03:41:15.715Z,16.40
2018-07-10T03:43:43.288Z,16.40
2018-07-10T03:46:10.850Z,16.30
2018-07-10T03:48:38.413Z,16.30
2018-07-10T03:51:05.958Z,16.20
2018-07-10T03:53:33.518Z,16.30
2018-07-10T03:56:01.084Z,16.40
2018-07-10T03:58:28.613Z,16.50
2018-07-10T04:00:56.155Z,16.50
2018-07-10T04:03:24.665Z,16.50
2018-07-10T04:05:52.195Z,16.50
2018-07-10T04:08:19.752Z,16.60
2018-07-10T04:10:47.301Z,16.60
2018-07-10T04:13:14.854Z,16.50
2018-07-10T04:15:42.386Z,16.50
2018-07-10T04:18:09.949Z,16.50
2018-07-10T04:20:37.506Z,16.50
2018-07-10T04:23:05.834Z,16.40
2018-07-10T04:25:33.373Z,16.40
2018-07-10T04:28:00.932Z,16.50
2018-07-10T04:30:28.492Z,16.50
2018-07-10T04:32:56.051Z,16.50
2018-07-10T04:35:23.590Z,16.40
2018-07-10T04:37:51.166Z,16.50
2018-07-10T04:40:18.729Z,16.60
2018-07-10T04:42:46.289Z,16.50
2018-07-10T04:45:13.826Z,16.50
2018-07-10T04:47:43.369Z,16.50
2018-07-10T04:50:10.934Z,16.70
2018-07-10T04:52:38.498Z,16.70
2018-07-10T04:55:06.813Z,16.80
2018-07-10T04:57:34.473Z,16.90
2018-07-10T05:00:02.009Z,16.80
2018-07-10T05:02:29.690Z,16.70
2018-07-10T05:04:57.221Z,16.80
2018-07-10T05:07:25.541Z,16.80
2018-07-10T05:09:53.065Z,16.80
2018-07-10T05:12:20.635Z,16.80
2018-07-10T05:14:48.160Z,16.80
2018-07-10T05:17:16.685Z,16.90
2018-07-10T05:19:46.184Z,16.70
2018-07-10T05:22:13.723Z,16.80
2018-07-10T05:24:43.257Z,16.90
2018-07-10T05:27:10.793Z,17.00
2018-07-10T05:29:38.349Z,17.10
2018-07-10T05:32:05.882Z,17.30
2018-07-10T05:34:33.412Z,17.20
2018-07-10T05:37:02.942Z,17.30
2018-07-10T05:39:30.474Z,17.20
2018-07-10T05:41:58.037Z,17.20
2018-07-10T05:44:27.343Z,17.30
2018-07-10T05:46:54.869Z,17.30
2018-07-10T05:49:22.422Z,17.30
2018-07-10T05:51:50.044Z,17.30
2018-07-10T05:54:17.568Z,17.30
2018-07-10T05:56:46.049Z,17.40
2018-07-10T05:59:14.382Z,17.50
2018-07-10T06:01:41.909Z,17.40
2018-07-10T06:04:09.492Z,17.50
2018-07-10T06:06:37.040Z,17.60
2018-07-10T06:09:04.590Z,17.60
2018-07-10T06:11:33.149Z,17.70
2018-07-10T06:14:00.722Z,17.80
2018-07-10T06:16:28.261Z,17.90
2018-07-10T06:18:55.824Z,17.90
2018-07-10T06:21:23.387Z,18.00
2018-07-10T06:23:52.893Z,18.20
2018-07-10T06:26:20.435Z,18.30
2018-07-10T06:28:48.126Z,18.20
2018-07-10T06:31:15.654Z,18.10
2018-07-10T06:33:43.994Z,18.30
2018-07-10T06:36:11.530Z,18.30
2018-07-10T06:38:39.093Z,18.40
2018-07-10T06:41:06.630Z,18.50
2018-07-10T06:43:34.190Z,18.50
2018-07-10T06:46:01.734Z,18.60
2018-07-10T06:48:29.354Z,18.60
2018-07-10T06:50:56.888Z,18.50
2018-07-10T06:53:24.888Z,18.60
2018-07-10T06:55:53.964Z,18.80
2018-07-10T06:58:21.530Z,18.80
2018-07-10T07:00:49.068Z,18.80
2018-07-10T07:03:16.633Z,18.80
2018-07-10T07:05:44.255Z,19.00
2018-07-10T07:08:11.830Z,18.80
2018-07-10T07:10:39.366Z,18.60
2018-07-10T07:13:06.949Z,18.90
2018-07-10T07:15:34.500Z,18.80
2018-07-10T07:18:02.062Z,18.80
2018-07-10T07:20:29.600Z,18.80
2018-07-10T07:22:57.162Z,19.00
2018-07-10T07:25:24.749Z,19.30
2018-07-10T07:27:53.083Z,19.60
2018-07-10T07:30:20.641Z,19.60
2018-07-10T07:32:48.196Z,19.70
2018-07-10T07:35:15.736Z,19.50
2018-07-10T07:37:43.292Z,19.40
2018-07-10T07:40:10.816Z,19.20
2018-07-10T07:42:38.377Z,19.20
2018-07-10T07:45:06.858Z,19.60
2018-07-10T07:47:34.390Z,19.70
2018-07-10T07:50:01.958Z,19.70
2018-07-10T07:52:29.537Z,19.70
2018-07-10T07:54:57.068Z,19.90
2018-07-10T07:57:24.629Z,20.10
2018-07-10T07:59:52.181Z,20.20
2018-07-10T08:02:19.717Z,20.20
2018-07-10T08:04:47.277Z,20.20
2018-07-10T08:07:14.832Z,20.20
2018-07-10T08:09:42.389Z,20.10
2018-07-10T08:12:10.893Z,20.10
2018-07-10T08:14:38.449Z,20.20
2018-07-10T08:17:05.980Z,20.30
2018-07-10T08:19:33.513Z,20.50
2018-07-10T08:22:01.077Z,20.70
2018-07-10T08:24:28.653Z,20.90
2018-07-10T08:26:56.191Z,20.80
2018-07-10T08:29:23.722Z,20.90
2018-07-10T08:31:52.023Z,21.10
2018-07-10T08:34:19.581Z,21.00
2018-07-10T08:36:47.142Z,21.00
2018-07-10T08:39:14.701Z,20.60
2018-07-10T08:41:42.325Z,20.90
2018-07-10T08:44:09.878Z,21.00
2018-07-10T08:46:38.395Z,20.90
2018-07-10T08:49:05.929Z,20.90
2018-07-10T08:51:34.446Z,21.30
2018-07-10T08:54:02.014Z,21.60
2018-07-10T08:56:29.550Z,21.30
2018-07-10T08:58:57.101Z,21.50
2018-07-10T09:01:24.656Z,21.30
2018-07-10T09:03:52.214Z,21.40
2018-07-10T09:06:20.714Z,21.80
2018-07-10T09:08:48.273Z,21.70
2018-07-10T09:11:15.949Z,21.90
2018-07-10T09:13:43.503Z,21.80
2018-07-10T09:16:11.097Z,21.90
2018-07-10T09:18:39.421Z,21.90
2018-07-10T09:21:06.957Z,21.80
2018-07-10T09:23:34.581Z,21.50
2018-07-10T09:26:02.149Z,21.70
2018-07-10T09:28:29.689Z,21.90
2018-07-10T09:30:57.240Z,22.20
2018-07-10T09:33:24.882Z,22.30
2018-07-10T09:35:52.480Z,22.20
2018-07-10T09:38:20.050Z,22.10
2018-07-10T09:40:47.653Z,22.20
2018-07-10T09:43:15.985Z,21.60
2018-07-10T09:45:43.513Z,21.60
2018-07-10T09:48:11.113Z,22.00
2018-07-10T09:50:38.688Z,22.40
2018-07-10T09:53:06.250Z,22.50
2018-07-10T09:55:33.778Z,22.40
2018-07-10T09:58:01.334Z,22.60
2018-07-10T10:00:28.883Z,22.80
2018-07-10T10:02:56.432Z,22.80
2018-07-10T10:05:24.918Z,22.60
2018-07-10T10:07:52.715Z,22.50
2018-07-10T10:10:20.241Z,22.60
2018-07-10T10:12:47.792Z,22.80
2018-07-10T10:15:15.326Z,22.80
2018-07-10T10:17:43.654Z,23.00
2018-07-10T10:20:11.199Z,23.00
2018-07-10T10:22:38.729Z,23.10
2018-07-10T10:25:06.282Z,23.20
2018-07-10T10:27:34.584Z,23.60
2018-07-10T10:30:02.163Z,23.50
2018-07-10T10:32:29.710Z,23.10
2018-07-10T10:34:57.265Z,23.10
2018-07-10T10:37:24.801Z,23.30
2018-07-10T10:39:52.359Z,22.90
2018-07-10T10:42:19.925Z,22.80
2018-07-10T10:44:47.490Z,22.90
2018-07-10T10:47:15.023Z,22.40
2018-07-10T10:49:42.589Z,22.40
2018-07-10T10:52:10.145Z,22.60
2018-07-10T10:54:37.701Z,23.20
2018-07-10T10:57:05.237Z,23.50
2018-07-10T10:59:32.790Z,23.60
2018-07-10T11:02:01.130Z,23.50
2018-07-10T11:04:30.625Z,23.40
2018-07-10T11:06:58.162Z,23.20
2018-07-10T11:09:25.723Z,23.40
2018-07-10T11:11:53.291Z,23.20
2018-07-10T11:14:20.845Z,23.00
2018-07-10T11:16:48.381Z,23.10
2018-07-10T11:19:15.961Z,23.50
2018-07-10T11:21:43.513Z,23.30
2018-07-10T11:24:11.075Z,23.50
2018-07-10T11:26:39.694Z,23.40
2018-07-10T11:29:07.997Z,23.10
2018-07-10T11:31:35.571Z,23.10
2018-07-10T11:34:03.130Z,23.10
2018-07-10T11:36:30.705Z,23.20
2018-07-10T11:38:58.240Z,23.60
2018-07-10T11:41:25.785Z,23.70
2018-07-10T11:43:54.305Z,23.50
2018-07-10T11:46:21.857Z,23.70
2018-07-10T11:48:49.414Z,23.30
2018-07-10T11:51:16.954Z,23.10
2018-07-10T11:53:44.521Z,23.00
2018-07-10T11:56:12.082Z,23.10
2018-07-10T11:58:39.613Z,23.10
2018-07-10T12:01:07.173Z,23.40
2018-07-10T12:03:34.698Z,23.80
2018-07-10T12:06:02.259Z,23.60
2018-07-10T12:08:29.786Z,23.50
2018-07-10T12:10:57.345Z,23.50
2018-07-10T12:13:24.881Z,23.50
2018-07-10T12:15:52.449Z,23.10
2018-07-10T12:18:19.972Z,23.00
2018-07-10T12:20:47.516Z,22.90
2018-07-10T12:23:15.079Z,23.10
2018-07-10T12:25:42.634Z,23.10
2018-07-10T12:28:10.194Z,23.00
2018-07-10T12:30:37.732Z,22.90
2018-07-10T12:33:05.284Z,22.70
2018-07-10T12:35:33.611Z,22.40
2018-07-10T12:38:01.147Z,22.40
2018-07-10T12:40:30.642Z,22.30
2018-07-10T12:42:58.196Z,22.10
2018-07-10T12:45:25.972Z,21.80
2018-07-10T12:47:53.534Z,21.60
2018-07-10T12:50:21.065Z,21.60
2018-07-10T12:52:48.625Z,21.30
2018-07-10T12:55:17.116Z,21.30
2018-07-10T12:57:44.676Z,21.30
2018-07-10T13:00:12.205Z,21.30
2018-07-10T13:02:41.470Z,21.40
2018-07-10T13:05:09.005Z,21.40
2018-07-10T13:07:36.596Z,21.50
2018-07-10T13:10:04.175Z,21.60
2018-07-10T13:12:32.477Z,21.90
2018-07-10T13:15:00.080Z,21.80
2018-07-10T13:17:27.650Z,21.70
2018-07-10T13:19:55.185Z,21.80
2018-07-10T13:22:22.747Z,22.00
2018-07-10T13:24:50.273Z,21.80
2018-07-10T13:27:17.829Z,21.70
2018-07-10T13:29:45.364Z,21.90
2018-07-10T13:32:12.905Z,22.30
2018-07-10T13:34:40.466Z,22.50
2018-07-10T13:37:09.025Z,22.90
2018-07-10T13:39:36.589Z,23.10
2018-07-10T13:42:04.121Z,23.00
2018-07-10T13:44:31.677Z,23.30
2018-07-10T13:46:59.209Z,23.30
2018-07-10T13:49:26.765Z,23.20
2018-07-10T13:51:55.257Z,23.10
2018-07-10T13:54:22.817Z,22.90
2018-07-10T13:56:50.373Z,22.40
2018-07-10T13:59:17.930Z,22.20
2018-07-10T14:01:45.518Z,22.10
2018-07-10T14:04:13.095Z,22.10
2018-07-10T14:06:40.758Z,22.30
2018-07-10T14:09:08.313Z,22.40
2018-07-10T14:11:36.612Z,23.50
2018-07-10T14:14:04.177Z,23.50
2018-07-10T14:16:31.777Z,24.30
2018-07-10T14:18:59.337Z,24.40
2018-07-10T14:21:27.154Z,24.10
2018-07-10T14:23:54.712Z,24.10
2018-07-10T14:26:22.245Z,25.10
2018-07-10T14:28:49.801Z,25.50
2018-07-10T14:31:17.337Z,25.10
2018-07-10T14:33:44.866Z,24.40
2018-07-10T14:36:13.429Z,23.50
2018-07-10T14:38:40.957Z,23.20
2018-07-10T14:41:08.533Z,22.90
2018-07-10T14:43:36.103Z,22.70
2018-07-10T14:46:03.658Z,22.60
2018-07-10T14:48:31.327Z,23.10
2018-07-10T14:50:58.858Z,23.40
2018-07-10T14:53:26.417Z,23.70
2018-07-10T14:55:54.021Z,23.90
2018-07-10T14:58:21.589Z,23.80
2018-07-10T15:00:49.126Z,25.20
2018-07-10T15:03:16.681Z,25.00
2018-07-10T15:05:44.243Z,24.50
2018-07-10T15:08:11.777Z,23.70
2018-07-10T15:10:39.329Z,23.20
2018-07-10T15:13:06.861Z,22.70
2018-07-10T15:15:36.384Z,22.50
2018-07-10T15:18:09.573Z,22.30
2018-07-10T15:20:37.128Z,22.20
2018-07-10T15:23:05.621Z,22.00
2018-07-10T15:25:35.101Z,21.80
2018-07-10T15:28:02.644Z,21.70
2018-07-10T15:30:30.193Z,21.50
2018-07-10T15:32:57.756Z,21.40
2018-07-10T15:35:25.392Z,21.30
2018-07-10T15:37:52.954Z,21.10
2018-07-10T15:40:21.283Z,20.30
2018-07-10T15:42:48.849Z,20.30
2018-07-10T15:45:16.405Z,20.10
2018-07-10T15:47:43.978Z,19.80
2018-07-10T15:50:11.512Z,19.60
2018-07-10T15:52:39.049Z,19.40
2018-07-10T15:55:07.442Z,19.40
2018-07-10T15:57:35.932Z,19.40
2018-07-10T16:00:03.494Z,19.40
2018-07-10T16:02:31.029Z,19.80
2018-07-10T16:04:58.594Z,20.20
2018-07-10T16:07:26.135Z,20.60
2018-07-10T16:09:53.701Z,20.70
2018-07-10T16:12:21.262Z,20.60
2018-07-10T16:14:48.825Z,20.50
2018-07-10T16:17:16.365Z,20.40
2018-07-10T16:19:43.898Z,20.30
2018-07-10T16:22:11.478Z,20.20
2018-07-10T16:24:39.018Z,20.20
2018-07-10T16:27:06.580Z,20.10
2018-07-10T16:29:35.070Z,20.30
2018-07-10T16:32:02.687Z,20.50
2018-07-10T16:34:30.281Z,20.60
2018-07-10T16:36:57.942Z,20.60
2018-07-10T16:39:25.624Z,20.40
2018-07-10T16:41:53.157Z,20.20
2018-07-10T16:44:20.715Z,20.00
2018-07-10T16:46:48.269Z,19.70
2018-07-10T16:49:15.824Z,19.60
2018-07-10T16:51:43.358Z,19.50
2018-07-10T16:54:11.680Z,19.50
2018-07-10T16:56:39.246Z,19.50
2018-07-10T16:59:06.788Z,19.60
2018-07-10T17:01:34.349Z,19.60
2018-07-10T17:04:01.909Z,19.50
2018-07-10T17:06:30.765Z,19.60
2018-07-10T17:08:58.297Z,19.50
2018-07-10T17:11:26.596Z,19.50
2018-07-10T17:13:56.111Z,19.50
2018-07-10T17:16:23.676Z,19.50
2018-07-10T17:18:51.237Z,19.50
2018-07-10T17:21:18.782Z,19.40
2018-07-10T17:23:46.362Z,19.40
2018-07-10T17:26:13.929Z,19.20
2018-07-10T17:28:41.489Z,19.20
2018-07-10T17:31:09.026Z,19.20
2018-07-10T17:33:36.589Z,19.20
2018-07-10T17:36:04.145Z,19.10
2018-07-10T17:38:31.704Z,19.10
2018-07-10T17:40:59.243Z,19.00
2018-07-10T17:43:26.802Z,19.00
2018-07-10T17:45:55.290Z,19.10
2018-07-10T17:48:22.853Z,19.10
2018-07-10T17:50:50.489Z,19.10
2018-07-10T17:53:18.053Z,19.00
2018-07-10T17:55:45.597Z,19.00
2018-07-10T17:58:13.157Z,18.90
2018-07-10T18:00:40.691Z,18.80
2018-07-10T18:03:08.270Z,18.90
2018-07-10T18:05:35.809Z,18.70
2018-07-10T18:08:03.373Z,18.50
2018-07-10T18:10:30.938Z,18.40
2018-07-10T18:12:58.472Z,18.50
2018-07-10T18:15:27.981Z,18.50
2018-07-10T18:17:55.527Z,18.50
2018-07-10T18:20:23.106Z,18.30
2018-07-10T18:22:50.799Z,18.30
2018-07-10T18:25:18.255Z,18.50
2018-07-10T18:27:45.810Z,18.60
2018-07-10T18:30:13.420Z,18.70
2018-07-10T18:32:40.922Z,18.50
2018-07-10T18:35:08.487Z,18.30
2018-07-10T18:37:36.025Z,18.30
2018-07-10T18:40:03.590Z,18.20
2018-07-10T18:42:31.235Z,18.20
2018-07-10T18:44:58.714Z,18.10
2018-07-10T18:47:26.537Z,18.10
2018-07-10T18:49:54.092Z,18.10
2018-07-10T18:52:22.391Z,18.00
2018-07-10T18:54:49.953Z,18.00
2018-07-10T18:57:17.482Z,18.00
2018-07-10T18:59:45.104Z,17.80
2018-07-10T19:02:12.643Z,17.80
2018-07-10T19:04:40.209Z,17.80
2018-07-10T19:07:07.741Z,17.80
2018-07-10T19:09:35.266Z,17.80
2018-07-10T19:12:03.589Z,17.70
2018-07-10T19:14:31.122Z,17.70
2018-07-10T19:16:58.689Z,17.70
2018-07-10T19:19:26.217Z,17.70
2018-07-10T19:21:54.781Z,17.70
2018-07-10T19:24:22.313Z,17.50
2018-07-10T19:26:49.883Z,17.50
2018-07-10T19:29:18.375Z,17.50
2018-07-10T19:31:46.198Z,17.40
2018-07-10T19:34:13.731Z,17.30
2018-07-10T19:36:41.301Z,17.30
2018-07-10T19:39:08.831Z,17.20
2018-07-10T19:41:37.393Z,17.20
2018-07-10T19:44:05.684Z,17.10
2018-07-10T19:46:33.245Z,17.10
2018-07-10T19:49:01.779Z,17.10
2018-07-10T19:51:29.317Z,17.10
2018-07-10T19:53:56.874Z,17.10
2018-07-10T19:56:24.407Z,17.10
2018-07-10T19:58:51.956Z,17.10
2018-07-10T20:01:19.554Z,17.00
2018-07-10T20:03:48.215Z,17.00
2018-07-10T20:06:17.010Z,16.90
2018-07-10T20:08:44.546Z,16.80
2018-07-10T20:11:13.066Z,16.70
2018-07-10T20:13:40.795Z,16.60
2018-07-10T20:16:08.365Z,16.60
2018-07-10T20:18:35.902Z,16.50
2018-07-10T20:21:03.433Z,16.40
2018-07-10T20:23:31.756Z,16.40
2018-07-10T20:25:59.298Z,16.40
2018-07-10T20:28:26.868Z,16.40
2018-07-10T20:30:54.410Z,16.20
2018-07-10T20:33:21.970Z,16.10
2018-07-10T20:35:49.597Z,16.00
2018-07-10T20:38:17.153Z,16.00
2018-07-10T20:40:44.697Z,15.90
2018-07-10T20:43:12.277Z,15.90
2018-07-10T20:45:39.904Z,15.80
2018-07-10T20:48:08.398Z,15.70
2018-07-10T20:50:35.937Z,15.60
2018-07-10T20:53:03.498Z,15.50
2018-07-10T20:55:31.052Z,15.50
2018-07-10T20:57:58.613Z,15.50
2018-07-10T21:00:26.153Z,15.40
2018-07-10T21:02:53.709Z,15.30
2018-07-10T21:05:21.275Z,15.30
2018-07-10T21:07:49.027Z,15.20
2018-07-10T21:10:16.558Z,15.00
2018-07-10T21:12:44.178Z,14.90
2018-07-10T21:15:11.741Z,14.80
2018-07-10T21:17:40.033Z,14.80
2018-07-10T21:20:07.590Z,14.80
2018-07-10T21:22:35.183Z,14.80
2018-07-10T21:25:04.672Z,14.70
2018-07-10T21:27:33.297Z,14.70
2018-07-10T21:30:00.886Z,14.60
2018-07-10T21:32:28.424Z,14.50
2018-07-10T21:34:55.988Z,14.50
2018-07-10T21:37:23.573Z,14.50
2018-07-10T21:39:51.142Z,14.50
2018-07-10T21:42:18.682Z,14.40
2018-07-10T21:44:46.242Z,14.30
2018-07-10T21:47:13.849Z,14.20
2018-07-10T21:49:41.384Z,14.10
2018-07-10T21:52:09.862Z,14.10
2018-07-10T21:54:37.421Z,14.10
2018-07-10T21:57:04.949Z,14.10
2018-07-10T21:59:32.487Z,14.10
2018-07-10T22:02:00.050Z,13.90
2018-07-10T22:04:27.589Z,13.90
2018-07-10T22:06:55.917Z,14.00
2018-07-10T22:09:23.529Z,14.00
2018-07-10T22:11:51.999Z,13.90
2018-07-10T22:14:21.492Z,13.90
2018-07-10T22:16:49.022Z,14.00
2018-07-10T22:19:16.573Z,14.00
2018-07-10T22:21:44.106Z,14.00
2018-07-10T22:24:11.634Z,14.00
2018-07-10T22:26:40.154Z,13.90
2018-07-10T22:29:08.645Z,13.90
2018-07-10T22:34:32.690Z,13.90
2018-07-10T22:37:01.197Z,13.90
2018-07-10T22:39:28.730Z,13.90
2018-07-10T22:41:56.289Z,13.90
2018-07-10T22:44:23.847Z,13.90
2018-07-10T22:46:51.412Z,13.90
2018-07-10T22:49:18.997Z,13.90
2018-07-10T22:51:46.565Z,13.90
2018-07-10T22:54:15.092Z,13.90
2018-07-10T22:56:43.442Z,13.90
2018-07-10T22:59:10.982Z,13.90
2018-07-10T23:01:38.545Z,13.90
2018-07-10T23:04:06.093Z,13.80
2018-07-10T23:06:33.658Z,13.70
2018-07-10T23:09:01.191Z,13.70
2018-07-10T23:11:28.758Z,13.70
2018-07-10T23:13:56.309Z,13.60
2018-07-10T23:16:24.805Z,13.60
2018-07-10T23:18:52.339Z,13.50
2018-07-10T23:21:19.897Z,13.40
2018-07-10T23:23:47.438Z,13.40
2018-07-10T23:26:15.015Z,13.30
2018-07-10T23:28:42.550Z,13.20
2018-07-10T23:31:10.114Z,13.20
2018-07-10T23:33:37.644Z,13.10
2018-07-10T23:36:05.185Z,13.10
2018-07-10T23:38:32.748Z,13.20
2018-07-10T23:41:00.314Z,13.20
2018-07-10T23:43:27.878Z,13.20
2018-07-10T23:45:57.128Z,13.00
2018-07-10T23:48:24.697Z,13.00
2018-07-10T23:50:52.258Z,12.90
2018-07-10T23:53:19.815Z,12.80
2018-07-10T23:55:47.363Z,12.70
2018-07-10T23:58:14.925Z,12.80
